sensor_id;sensor_type;location;lat;lon;timestamp;temperature;humidity
10437;DHT22;5265;50.006;9.202;2023-05-10T03:48:32;12.60;99.90
10437;DHT22;5265;50.006;9.202;2023-05-10T03:50:59;12.70;99.90
10437;DHT22;5265;50.006;9.202;2023-05-10T03:53:26;12.70;99.90
10437;DHT22;5265;50.006;9.202;2023-05-10T03:55:54;12.60;99.90
10437;DHT22;5265;50.006;9.202;2023-05-10T03:58:21;12.60;99.90
10437;DHT22;5265;50.006;9.202;2023-05-10T04:00:48;12.60;99.90
10437;DHT22;5265;50.006;9.202;2023-05-10T04:03:15;12.50;99.90
10437;DHT22;5265;50.006;9.202;2023-05-10T04:05:44;12.60;99.90
10437;DHT22;5265;50.006;9.202;2023-05-10T04:08:11;12.60;99.90
10437;DHT22;5265;50.006;9.202;2023-05-10T04:10:40;12.50;99.90
10437;DHT22;5265;50.006;9.202;2023-05-10T04:13:07;12.70;99.90
10437;DHT22;5265;50.006;9.202;2023-05-10T04:15:35;12.60;99.90
10437;DHT22;5265;50.006;9.202;2023-05-10T04:18:02;12.60;99.90
10437;DHT22;5265;50.006;9.202;2023-05-10T04:20:29;12.70;99.90
10437;DHT22;5265;50.006;9.202;2023-05-10T04:22:58;12.70;99.90
10437;DHT22;5265;50.006;9.202;2023-05-10T04:25:24;12.70;99.90
10437;DHT22;5265;50.006;9.202;2023-05-10T04:27:51;12.70;99.90
10437;DHT22;5265;50.006;9.202;2023-05-10T04:30:19;12.80;99.90
10437;DHT22;5265;50.006;9.202;2023-05-10T04:32:46;12.80;99.90
10437;DHT22;5265;50.006;9.202;2023-05-10T04:35:13;12.80;99.90
10437;DHT22;5265;50.006;9.202;2023-05-10T04:37:41;12.80;99.90
10437;DHT22;5265;50.006;9.202;2023-05-10T04:40:10;12.80;99.90
10437;DHT22;5265;50.006;9.202;2023-05-10T04:42:39;12.80;99.90
10437;DHT22;5265;50.006;9.202;2023-05-10T04:45:07;12.90;99.90
10437;DHT22;5265;50.006;9.202;2023-05-10T04:47:34;12.80;99.90
10437;DHT22;5265;50.006;9.202;2023-05-10T04:50:03;12.90;99.90
10437;DHT22;5265;50.006;9.202;2023-05-10T04:52:30;12.80;99.90
10437;DHT22;5265;50.006;9.202;2023-05-10T04:54:57;12.80;99.90
10437;DHT22;5265;50.006;9.202;2023-05-10T04:57:25;13.00;99.90
10437;DHT22;5265;50.006;9.202;2023-05-10T04:59:52;12.90;99.90
10437;DHT22;5265;50.006;9.202;2023-05-10T05:02:19;12.90;99.90
10437;DHT22;5265;50.006;9.202;2023-05-10T05:04:46;13.00;99.90
10437;DHT22;5265;50.006;9.202;2023-05-10T05:07:13;13.00;99.90
10437;DHT22;5265;50.006;9.202;2023-05-10T05:09:40;13.00;99.90
10437;DHT22;5265;50.006;9.202;2023-05-10T05:12:07;13.00;99.90
10437;DHT22;5265;50.006;9.202;2023-05-10T05:14:41;13.20;99.90
10437;DHT22;5265;50.006;9.202;2023-05-10T05:17:08;13.20;99.90
10437;DHT22;5265;50.006;9.202;2023-05-10T05:19:35;13.20;99.90
10437;DHT22;5265;50.006;9.202;2023-05-10T05:22:02;13.20;99.90
10437;DHT22;5265;50.006;9.202;2023-05-10T05:24:29;13.30;99.90
10437;DHT22;5265;50.006;9.202;2023-05-10T05:27:01;13.20;99.90
10437;DHT22;5265;50.006;9.202;2023-05-10T05:29:28;13.30;99.90
10437;DHT22;5265;50.006;9.202;2023-05-10T05:31:56;13.20;99.90
10437;DHT22;5265;50.006;9.202;2023-05-10T05:34:23;13.20;99.90
10437;DHT22;5265;50.006;9.202;2023-05-10T05:36:51;13.20;99.90
10437;DHT22;5265;50.006;9.202;2023-05-10T05:39:19;13.20;99.90
10437;DHT22;5265;50.006;9.202;2023-05-10T05:41:46;13.20;99.90
10437;DHT22;5265;50.006;9.202;2023-05-10T05:44:13;13.30;99.90
10437;DHT22;5265;50.006;9.202;2023-05-10T05:46:41;13.10;99.90
10437;DHT22;5265;50.006;9.202;2023-05-10T05:49:09;13.20;99.90
10437;DHT22;5265;50.006;9.202;2023-05-10T05:51:36;13.30;99.90
10437;DHT22;5265;50.006;9.202;2023-05-10T05:54:03;13.30;99.90
10437;DHT22;5265;50.006;9.202;2023-05-10T05:56:31;13.30;99.90
10437;DHT22;5265;50.006;9.202;2023-05-10T05:58:58;13.40;99.90
10437;DHT22;5265;50.006;9.202;2023-05-10T06:01:25;13.40;99.90
10437;DHT22;5265;50.006;9.202;2023-05-10T06:03:52;13.40;99.90
10437;DHT22;5265;50.006;9.202;2023-05-10T06:06:20;13.40;99.90
10437;DHT22;5265;50.006;9.202;2023-05-10T06:08:47;13.40;99.90
10437;DHT22;5265;50.006;9.202;2023-05-10T06:11:14;13.40;99.90
10437;DHT22;5265;50.006;9.202;2023-05-10T06:13:42;13.40;99.90
10437;DHT22;5265;50.006;9.202;2023-05-10T06:16:09;13.50;99.90
10437;DHT22;5265;50.006;9.202;2023-05-10T06:18:36;13.50;99.90
10437;DHT22;5265;50.006;9.202;2023-05-10T06:21:03;13.40;99.90
10437;DHT22;5265;50.006;9.202;2023-05-10T06:23:31;13.30;99.90
10437;DHT22;5265;50.006;9.202;2023-05-10T06:25:59;13.30;99.90
10437;DHT22;5265;50.006;9.202;2023-05-10T06:28:26;13.30;99.90
10437;DHT22;5265;50.006;9.202;2023-05-10T06:30:53;13.40;99.90
10437;DHT22;5265;50.006;9.202;2023-05-10T06:33:20;13.30;99.90
10437;DHT22;5265;50.006;9.202;2023-05-10T06:35:47;13.30;99.90
10437;DHT22;5265;50.006;9.202;2023-05-10T06:38:14;13.30;99.90
10437;DHT22;5265;50.006;9.202;2023-05-10T06:40:43;13.30;99.90
10437;DHT22;5265;50.006;9.202;2023-05-10T06:43:10;13.30;99.90
10437;DHT22;5265;50.006;9.202;2023-05-10T06:45:37;13.30;99.90
10437;DHT22;5265;50.006;9.202;2023-05-10T06:48:04;13.30;99.90
10437;DHT22;5265;50.006;9.202;2023-05-10T06:50:32;13.40;99.90
10437;DHT22;5265;50.006;9.202;2023-05-10T06:52:59;13.40;99.90
10437;DHT22;5265;50.006;9.202;2023-05-10T06:55:26;13.30;99.90
10437;DHT22;5265;50.006;9.202;2023-05-10T06:57:54;13.40;99.90
10437;DHT22;5265;50.006;9.202;2023-05-10T07:00:22;13.40;99.90
10437;DHT22;5265;50.006;9.202;2023-05-10T07:02:49;13.40;99.90
10437;DHT22;5265;50.006;9.202;2023-05-10T07:05:16;13.50;99.90
10437;DHT22;5265;50.006;9.202;2023-05-10T07:07:44;13.40;99.90
10437;DHT22;5265;50.006;9.202;2023-05-10T07:10:11;13.40;99.90
10437;DHT22;5265;50.006;9.202;2023-05-10T07:12:38;13.40;99.90
10437;DHT22;5265;50.006;9.202;2023-05-10T07:15:07;13.40;99.90
10437;DHT22;5265;50.006;9.202;2023-05-10T07:17:35;13.40;99.90
10437;DHT22;5265;50.006;9.202;2023-05-10T07:20:02;13.30;99.90
10437;DHT22;5265;50.006;9.202;2023-05-10T07:22:29;13.30;99.90
10437;DHT22;5265;50.006;9.202;2023-05-10T07:24:56;13.40;99.90
10437;DHT22;5265;50.006;9.202;2023-05-10T07:27:24;13.30;99.90
10437;DHT22;5265;50.006;9.202;2023-05-10T07:29:51;13.40;99.90
10437;DHT22;5265;50.006;9.202;2023-05-10T07:32:19;13.40;99.90
10437;DHT22;5265;50.006;9.202;2023-05-10T07:34:47;13.60;99.90
10437;DHT22;5265;50.006;9.202;2023-05-10T07:37:14;13.50;99.90
10437;DHT22;5265;50.006;9.202;2023-05-10T07:39:41;13.60;99.90
10437;DHT22;5265;50.006;9.202;2023-05-10T07:42:08;13.50;99.90
10437;DHT22;5265;50.006;9.202;2023-05-10T07:44:35;13.50;99.90
10437;DHT22;5265;50.006;9.202;2023-05-10T07:47:02;13.50;99.90
10437;DHT22;5265;50.006;9.202;2023-05-10T07:49:31;13.60;99.90
10437;DHT22;5265;50.006;9.202;2023-05-10T07:51:57;13.60;99.90
10437;DHT22;5265;50.006;9.202;2023-05-10T07:54:25;13.50;99.90
10437;DHT22;5265;50.006;9.202;2023-05-10T07:56:52;13.60;99.90
10437;DHT22;5265;50.006;9.202;2023-05-10T07:59:19;13.50;99.90
10437;DHT22;5265;50.006;9.202;2023-05-10T08:01:46;13.50;99.90
10437;DHT22;5265;50.006;9.202;2023-05-10T08:04:13;13.50;99.90
10437;DHT22;5265;50.006;9.202;2023-05-10T08:06:42;13.50;99.90
10437;DHT22;5265;50.006;9.202;2023-05-10T08:09:09;13.70;99.90
10437;DHT22;5265;50.006;9.202;2023-05-10T08:11:36;13.60;99.90
10437;DHT22;5265;50.006;9.202;2023-05-10T08:14:03;13.70;99.90
10437;DHT22;5265;50.006;9.202;2023-05-10T08:16:31;13.70;99.90
10437;DHT22;5265;50.006;9.202;2023-05-10T08:18:58;13.60;99.90
10437;DHT22;5265;50.006;9.202;2023-05-10T08:21:26;13.70;99.90
10437;DHT22;5265;50.006;9.202;2023-05-10T08:23:54;13.80;99.90
10437;DHT22;5265;50.006;9.202;2023-05-10T08:26:21;13.80;99.90
10437;DHT22;5265;50.006;9.202;2023-05-10T08:28:48;13.90;99.90
10437;DHT22;5265;50.006;9.202;2023-05-10T08:31:16;13.90;99.90
10437;DHT22;5265;50.006;9.202;2023-05-10T08:33:43;13.90;99.90
10437;DHT22;5265;50.006;9.202;2023-05-10T08:36:10;14.00;99.90
10437;DHT22;5265;50.006;9.202;2023-05-10T08:38:39;14.10;99.90
10437;DHT22;5265;50.006;9.202;2023-05-10T08:41:08;14.10;99.90
10437;DHT22;5265;50.006;9.202;2023-05-10T08:43:36;14.10;99.90
10437;DHT22;5265;50.006;9.202;2023-05-10T08:46:03;14.20;99.90
10437;DHT22;5265;50.006;9.202;2023-05-10T08:48:31;14.30;99.90
10437;DHT22;5265;50.006;9.202;2023-05-10T08:51:01;14.20;99.90
10437;DHT22;5265;50.006;9.202;2023-05-10T08:53:29;14.20;99.90
10437;DHT22;5265;50.006;9.202;2023-05-10T08:55:57;14.20;99.90
10437;DHT22;5265;50.006;9.202;2023-05-10T08:58:26;14.30;99.90
10437;DHT22;5265;50.006;9.202;2023-05-10T09:00:53;14.50;99.90
10437;DHT22;5265;50.006;9.202;2023-05-10T09:03:20;14.60;99.90
10437;DHT22;5265;50.006;9.202;2023-05-10T09:05:48;14.60;99.90
10437;DHT22;5265;50.006;9.202;2023-05-10T09:08:15;14.70;99.90
10437;DHT22;5265;50.006;9.202;2023-05-10T09:10:42;14.70;99.90
10437;DHT22;5265;50.006;9.202;2023-05-10T09:13:10;14.90;99.90
10437;DHT22;5265;50.006;9.202;2023-05-10T09:15:38;15.00;99.90
10437;DHT22;5265;50.006;9.202;2023-05-10T09:18:05;15.20;99.90
10437;DHT22;5265;50.006;9.202;2023-05-10T09:20:33;15.10;99.90
10437;DHT22;5265;50.006;9.202;2023-05-10T09:23:00;15.20;99.90
10437;DHT22;5265;50.006;9.202;2023-05-10T09:25:27;15.20;99.90
10437;DHT22;5265;50.006;9.202;2023-05-10T09:27:54;15.30;99.90
10437;DHT22;5265;50.006;9.202;2023-05-10T09:30:25;15.40;99.90
10437;DHT22;5265;50.006;9.202;2023-05-10T09:32:54;15.50;99.90
10437;DHT22;5265;50.006;9.202;2023-05-10T09:35:21;15.60;99.90
10437;DHT22;5265;50.006;9.202;2023-05-10T09:37:50;15.50;99.90
10437;DHT22;5265;50.006;9.202;2023-05-10T09:40:18;15.60;99.90
10437;DHT22;5265;50.006;9.202;2023-05-10T09:42:50;15.60;99.90
10437;DHT22;5265;50.006;9.202;2023-05-10T09:45:18;15.60;99.90
10437;DHT22;5265;50.006;9.202;2023-05-10T09:47:45;15.50;99.90
10437;DHT22;5265;50.006;9.202;2023-05-10T09:50:14;15.50;99.90
10437;DHT22;5265;50.006;9.202;2023-05-10T09:52:48;15.80;99.90
10437;DHT22;5265;50.006;9.202;2023-05-10T09:55:16;15.80;99.90
10437;DHT22;5265;50.006;9.202;2023-05-10T09:57:43;15.90;99.90
10437;DHT22;5265;50.006;9.202;2023-05-10T10:00:11;16.00;99.90
10437;DHT22;5265;50.006;9.202;2023-05-10T10:02:43;15.60;99.90
10437;DHT22;5265;50.006;9.202;2023-05-10T10:05:11;15.80;99.90
10437;DHT22;5265;50.006;9.202;2023-05-10T10:07:40;15.70;99.90
10437;DHT22;5265;50.006;9.202;2023-05-10T10:10:08;15.60;99.90
10437;DHT22;5265;50.006;9.202;2023-05-10T10:12:38;15.30;99.90
10437;DHT22;5265;50.006;9.202;2023-05-10T10:15:07;14.90;99.90
10437;DHT22;5265;50.006;9.202;2023-05-10T10:17:35;14.90;99.90
10437;DHT22;5265;50.006;9.202;2023-05-10T10:20:03;14.90;99.90
10437;DHT22;5265;50.006;9.202;2023-05-10T10:22:30;15.00;99.90
10437;DHT22;5265;50.006;9.202;2023-05-10T10:24:59;14.90;99.90
10437;DHT22;5265;50.006;9.202;2023-05-10T10:27:28;14.90;99.90
10437;DHT22;5265;50.006;9.202;2023-05-10T10:30:00;15.00;99.90
10437;DHT22;5265;50.006;9.202;2023-05-10T10:35:12;15.30;99.90
10437;DHT22;5265;50.006;9.202;2023-05-10T10:37:43;15.60;99.90
10437;DHT22;5265;50.006;9.202;2023-05-10T10:40:27;15.80;99.90
10437;DHT22;5265;50.006;9.202;2023-05-10T10:42:54;15.90;99.90
10437;DHT22;5265;50.006;9.202;2023-05-10T10:45:22;15.70;99.90
10437;DHT22;5265;50.006;9.202;2023-05-10T10:47:53;15.70;99.90
10437;DHT22;5265;50.006;9.202;2023-05-10T10:50:20;15.70;99.90
10437;DHT22;5265;50.006;9.202;2023-05-10T10:52:47;15.90;99.90
10437;DHT22;5265;50.006;9.202;2023-05-10T10:55:18;15.90;99.90
10437;DHT22;5265;50.006;9.202;2023-05-10T10:57:49;16.10;99.90
10437;DHT22;5265;50.006;9.202;2023-05-10T11:00:24;16.40;99.90
10437;DHT22;5265;50.006;9.202;2023-05-10T11:02:53;16.60;99.90
10437;DHT22;5265;50.006;9.202;2023-05-10T11:08:06;16.20;99.90
10437;DHT22;5265;50.006;9.202;2023-05-10T11:10:34;16.00;99.90
10437;DHT22;5265;50.006;9.202;2023-05-10T11:13:03;15.60;99.90
10437;DHT22;5265;50.006;9.202;2023-05-10T11:15:31;15.60;99.90
10437;DHT22;5265;50.006;9.202;2023-05-10T11:17:59;15.30;99.90
10437;DHT22;5265;50.006;9.202;2023-05-10T11:20:33;15.00;99.90
10437;DHT22;5265;50.006;9.202;2023-05-10T11:23:12;15.10;99.90
10437;DHT22;5265;50.006;9.202;2023-05-10T11:25:41;15.30;99.90
10437;DHT22;5265;50.006;9.202;2023-05-10T11:28:11;15.20;99.90
10437;DHT22;5265;50.006;9.202;2023-05-10T11:30:38;15.30;99.90
10437;DHT22;5265;50.006;9.202;2023-05-10T11:33:06;15.20;99.90
10437;DHT22;5265;50.006;9.202;2023-05-10T11:35:36;15.10;99.90
10437;DHT22;5265;50.006;9.202;2023-05-10T11:38:04;15.40;99.90
10437;DHT22;5265;50.006;9.202;2023-05-10T11:40:32;15.60;99.90
10437;DHT22;5265;50.006;9.202;2023-05-10T11:42:59;15.20;99.90
10437;DHT22;5265;50.006;9.202;2023-05-10T11:45:27;15.20;99.90
10437;DHT22;5265;50.006;9.202;2023-05-10T11:47:55;15.20;99.90
10437;DHT22;5265;50.006;9.202;2023-05-10T11:50:22;15.00;99.90
10437;DHT22;5265;50.006;9.202;2023-05-10T11:52:50;15.10;99.90
10437;DHT22;5265;50.006;9.202;2023-05-10T11:55:17;15.40;99.90
10437;DHT22;5265;50.006;9.202;2023-05-10T11:57:44;15.40;99.90
10437;DHT22;5265;50.006;9.202;2023-05-10T12:00:12;15.50;99.90
10437;DHT22;5265;50.006;9.202;2023-05-10T12:02:42;15.30;99.90
10437;DHT22;5265;50.006;9.202;2023-05-10T12:05:09;15.20;99.90
10437;DHT22;5265;50.006;9.202;2023-05-10T12:07:36;15.40;99.90
10437;DHT22;5265;50.006;9.202;2023-05-10T12:10:07;15.40;99.90
10437;DHT22;5265;50.006;9.202;2023-05-10T12:12:36;15.30;99.90
10437;DHT22;5265;50.006;9.202;2023-05-10T12:15:03;15.30;99.90
10437;DHT22;5265;50.006;9.202;2023-05-10T12:17:30;15.20;99.90
10437;DHT22;5265;50.006;9.202;2023-05-10T12:20:00;15.20;99.90
10437;DHT22;5265;50.006;9.202;2023-05-10T12:22:39;15.20;99.90
10437;DHT22;5265;50.006;9.202;2023-05-10T12:25:06;15.10;99.90
10437;DHT22;5265;50.006;9.202;2023-05-10T12:27:34;14.70;99.90
10437;DHT22;5265;50.006;9.202;2023-05-10T12:30:01;14.60;99.90
10437;DHT22;5265;50.006;9.202;2023-05-10T12:32:38;14.60;99.90
10437;DHT22;5265;50.006;9.202;2023-05-10T12:35:07;14.60;99.90
10437;DHT22;5265;50.006;9.202;2023-05-10T12:37:34;14.60;99.90
10437;DHT22;5265;50.006;9.202;2023-05-10T12:40:05;14.70;99.90
10437;DHT22;5265;50.006;9.202;2023-05-10T12:42:33;14.90;99.90
10437;DHT22;5265;50.006;9.202;2023-05-10T12:45:01;15.10;99.90
10437;DHT22;5265;50.006;9.202;2023-05-10T12:47:28;15.20;99.90
10437;DHT22;5265;50.006;9.202;2023-05-10T12:49:55;15.30;99.90
10437;DHT22;5265;50.006;9.202;2023-05-10T12:52:23;15.50;99.90
10437;DHT22;5265;50.006;9.202;2023-05-10T12:54:51;15.60;99.90
10437;DHT22;5265;50.006;9.202;2023-05-10T12:57:19;15.70;99.90
10437;DHT22;5265;50.006;9.202;2023-05-10T12:59:47;16.00;99.90
10437;DHT22;5265;50.006;9.202;2023-05-10T13:02:14;16.10;99.90
10437;DHT22;5265;50.006;9.202;2023-05-10T13:04:43;16.00;99.90
10437;DHT22;5265;50.006;9.202;2023-05-10T13:07:12;16.30;99.90
10437;DHT22;5265;50.006;9.202;2023-05-10T13:09:40;16.70;99.90
10437;DHT22;5265;50.006;9.202;2023-05-10T13:12:07;16.90;99.90
10437;DHT22;5265;50.006;9.202;2023-05-10T13:14:34;17.00;99.90
10437;DHT22;5265;50.006;9.202;2023-05-10T13:17:01;17.10;99.90
10437;DHT22;5265;50.006;9.202;2023-05-10T13:19:28;17.30;99.90
10437;DHT22;5265;50.006;9.202;2023-05-10T13:21:55;17.60;99.90
10437;DHT22;5265;50.006;9.202;2023-05-10T13:24:22;17.60;99.90
10437;DHT22;5265;50.006;9.202;2023-05-10T13:26:50;17.90;99.90
10437;DHT22;5265;50.006;9.202;2023-05-10T13:29:17;17.30;99.90
10437;DHT22;5265;50.006;9.202;2023-05-10T13:31:45;17.60;99.90
10437;DHT22;5265;50.006;9.202;2023-05-10T13:34:12;17.80;99.90
10437;DHT22;5265;50.006;9.202;2023-05-10T13:36:39;18.10;99.90
10437;DHT22;5265;50.006;9.202;2023-05-10T13:39:05;17.90;99.90
10437;DHT22;5265;50.006;9.202;2023-05-10T13:41:33;17.90;99.90
10437;DHT22;5265;50.006;9.202;2023-05-10T13:44:01;18.00;99.90
10437;DHT22;5265;50.006;9.202;2023-05-10T13:46:28;18.00;99.90
10437;DHT22;5265;50.006;9.202;2023-05-10T13:48:56;18.00;99.90
10437;DHT22;5265;50.006;9.202;2023-05-10T13:51:23;18.10;99.90
10437;DHT22;5265;50.006;9.202;2023-05-10T13:53:50;17.90;99.90
10437;DHT22;5265;50.006;9.202;2023-05-10T13:56:17;17.50;99.90
10437;DHT22;5265;50.006;9.202;2023-05-10T13:58:44;17.50;99.90
10437;DHT22;5265;50.006;9.202;2023-05-10T14:01:13;17.70;99.90
10437;DHT22;5265;50.006;9.202;2023-05-10T14:03:40;17.50;99.90
10437;DHT22;5265;50.006;9.202;2023-05-10T14:06:07;17.40;99.90
10437;DHT22;5265;50.006;9.202;2023-05-10T14:08:35;17.30;99.90
10437;DHT22;5265;50.006;9.202;2023-05-10T14:11:02;17.40;99.90
10437;DHT22;5265;50.006;9.202;2023-05-10T14:13:29;17.20;99.90
10437;DHT22;5265;50.006;9.202;2023-05-10T14:15:56;17.50;99.90
10437;DHT22;5265;50.006;9.202;2023-05-10T14:18:25;17.80;99.90
10437;DHT22;5265;50.006;9.202;2023-05-10T14:20:53;17.80;99.90
10437;DHT22;5265;50.006;9.202;2023-05-10T14:23:21;17.90;99.90
10437;DHT22;5265;50.006;9.202;2023-05-10T14:25:50;18.00;99.90
10437;DHT22;5265;50.006;9.202;2023-05-10T14:28:17;18.00;99.90
10437;DHT22;5265;50.006;9.202;2023-05-10T14:30:46;18.00;99.90
10437;DHT22;5265;50.006;9.202;2023-05-10T14:33:13;18.00;99.90
10437;DHT22;5265;50.006;9.202;2023-05-10T14:35:42;17.90;99.90
10437;DHT22;5265;50.006;9.202;2023-05-10T14:38:09;17.70;99.90
10437;DHT22;5265;50.006;9.202;2023-05-10T14:40:36;18.10;99.90
10437;DHT22;5265;50.006;9.202;2023-05-10T14:43:03;18.00;99.90
10437;DHT22;5265;50.006;9.202;2023-05-10T14:45:31;18.00;99.90
10437;DHT22;5265;50.006;9.202;2023-05-10T14:47:58;18.00;99.90
10437;DHT22;5265;50.006;9.202;2023-05-10T14:50:25;17.70;99.90
10437;DHT22;5265;50.006;9.202;2023-05-10T14:52:54;17.40;99.90
10437;DHT22;5265;50.006;9.202;2023-05-10T14:55:21;17.50;99.90
10437;DHT22;5265;50.006;9.202;2023-05-10T14:57:48;17.70;99.90
10437;DHT22;5265;50.006;9.202;2023-05-10T15:00:16;17.50;99.90
10437;DHT22;5265;50.006;9.202;2023-05-10T15:02:45;17.60;99.90
10437;DHT22;5265;50.006;9.202;2023-05-10T15:05:12;17.50;99.90
10437;DHT22;5265;50.006;9.202;2023-05-10T15:07:40;17.50;99.90
10437;DHT22;5265;50.006;9.202;2023-05-10T15:10:10;17.30;99.90
10437;DHT22;5265;50.006;9.202;2023-05-10T15:12:38;17.20;99.90
10437;DHT22;5265;50.006;9.202;2023-05-10T15:15:06;17.40;99.90
10437;DHT22;5265;50.006;9.202;2023-05-10T15:17:33;17.30;99.90
10437;DHT22;5265;50.006;9.202;2023-05-10T15:20:01;17.40;99.90
10437;DHT22;5265;50.006;9.202;2023-05-10T15:22:29;17.50;99.90
10437;DHT22;5265;50.006;9.202;2023-05-10T15:24:57;17.40;99.90
10437;DHT22;5265;50.006;9.202;2023-05-10T15:27:26;17.40;99.90
10437;DHT22;5265;50.006;9.202;2023-05-10T15:29:53;17.30;99.90
10437;DHT22;5265;50.006;9.202;2023-05-10T15:32:21;17.40;99.90
10437;DHT22;5265;50.006;9.202;2023-05-10T15:34:48;17.50;99.90
10437;DHT22;5265;50.006;9.202;2023-05-10T15:37:15;17.50;99.90
10437;DHT22;5265;50.006;9.202;2023-05-10T15:39:42;17.50;99.90
10437;DHT22;5265;50.006;9.202;2023-05-10T15:42:09;17.70;99.90
10437;DHT22;5265;50.006;9.202;2023-05-10T15:44:38;18.00;99.90
10437;DHT22;5265;50.006;9.202;2023-05-10T15:47:05;18.20;99.90
10437;DHT22;5265;50.006;9.202;2023-05-10T15:49:32;17.70;99.90
10437;DHT22;5265;50.006;9.202;2023-05-10T15:51:59;17.60;99.90
10437;DHT22;5265;50.006;9.202;2023-05-10T15:54:26;17.60;99.90
10437;DHT22;5265;50.006;9.202;2023-05-10T15:56:53;17.50;99.90
10437;DHT22;5265;50.006;9.202;2023-05-10T15:59:21;17.60;99.90
10437;DHT22;5265;50.006;9.202;2023-05-10T16:01:49;17.50;99.90
10437;DHT22;5265;50.006;9.202;2023-05-10T16:04:17;17.50;99.90
10437;DHT22;5265;50.006;9.202;2023-05-10T16:06:44;17.70;99.90
10437;DHT22;5265;50.006;9.202;2023-05-10T16:09:11;17.50;99.90
10437;DHT22;5265;50.006;9.202;2023-05-10T16:11:37;17.40;99.90
10437;DHT22;5265;50.006;9.202;2023-05-10T16:14:05;17.20;99.90
10437;DHT22;5265;50.006;9.202;2023-05-10T16:16:32;17.40;99.90
10437;DHT22;5265;50.006;9.202;2023-05-10T16:19:01;17.50;99.90
10437;DHT22;5265;50.006;9.202;2023-05-10T16:21:29;17.50;99.90
10437;DHT22;5265;50.006;9.202;2023-05-10T16:23:56;17.50;99.90
10437;DHT22;5265;50.006;9.202;2023-05-10T16:26:24;17.60;99.90
10437;DHT22;5265;50.006;9.202;2023-05-10T16:28:51;17.60;99.90
10437;DHT22;5265;50.006;9.202;2023-05-10T16:31:18;17.50;99.90
10437;DHT22;5265;50.006;9.202;2023-05-10T16:33:45;17.60;99.90
10437;DHT22;5265;50.006;9.202;2023-05-10T16:36:14;17.70;99.90
10437;DHT22;5265;50.006;9.202;2023-05-10T16:38:41;17.80;99.90
10437;DHT22;5265;50.006;9.202;2023-05-10T16:41:08;17.50;99.90
10437;DHT22;5265;50.006;9.202;2023-05-10T16:43:36;17.30;99.90
10437;DHT22;5265;50.006;9.202;2023-05-10T16:46:08;17.30;99.90
10437;DHT22;5265;50.006;9.202;2023-05-10T16:48:35;17.30;99.90
10437;DHT22;5265;50.006;9.202;2023-05-10T16:51:02;17.40;99.90
10437;DHT22;5265;50.006;9.202;2023-05-10T16:53:31;17.30;99.90
10437;DHT22;5265;50.006;9.202;2023-05-10T16:55:58;17.20;99.90
10437;DHT22;5265;50.006;9.202;2023-05-10T16:58:25;17.20;99.90
10437;DHT22;5265;50.006;9.202;2023-05-10T17:00:52;17.40;99.90
10437;DHT22;5265;50.006;9.202;2023-05-10T17:03:19;17.30;99.90
10437;DHT22;5265;50.006;9.202;2023-05-10T17:05:47;17.30;99.90
10437;DHT22;5265;50.006;9.202;2023-05-10T17:08:14;17.60;99.90
10437;DHT22;5265;50.006;9.202;2023-05-10T17:10:42;17.60;99.90
10437;DHT22;5265;50.006;9.202;2023-05-10T17:13:09;17.40;99.90
10437;DHT22;5265;50.006;9.202;2023-05-10T17:15:37;17.20;99.90
10437;DHT22;5265;50.006;9.202;2023-05-10T17:18:04;17.10;99.90
10437;DHT22;5265;50.006;9.202;2023-05-10T17:20:32;16.90;99.90
10437;DHT22;5265;50.006;9.202;2023-05-10T17:22:59;16.90;99.90
10437;DHT22;5265;50.006;9.202;2023-05-10T17:25:27;16.80;99.90
10437;DHT22;5265;50.006;9.202;2023-05-10T17:27:56;16.90;99.90
10437;DHT22;5265;50.006;9.202;2023-05-10T17:30:23;16.80;99.90
10437;DHT22;5265;50.006;9.202;2023-05-10T17:32:52;16.90;99.90
10437;DHT22;5265;50.006;9.202;2023-05-10T17:35:20;16.90;99.90
10437;DHT22;5265;50.006;9.202;2023-05-10T17:37:47;16.90;99.90
10437;DHT22;5265;50.006;9.202;2023-05-10T17:40:14;16.80;99.90
10437;DHT22;5265;50.006;9.202;2023-05-10T17:42:41;16.70;99.90
10437;DHT22;5265;50.006;9.202;2023-05-10T17:45:10;16.80;99.90
10437;DHT22;5265;50.006;9.202;2023-05-10T17:47:37;16.70;99.90
10437;DHT22;5265;50.006;9.202;2023-05-10T17:50:05;16.60;99.90
10437;DHT22;5265;50.006;9.202;2023-05-10T17:52:32;16.60;99.90
10437;DHT22;5265;50.006;9.202;2023-05-10T17:54:59;16.60;99.90
10437;DHT22;5265;50.006;9.202;2023-05-10T17:57:27;16.50;99.90
10437;DHT22;5265;50.006;9.202;2023-05-10T17:59:54;16.70;99.90
10437;DHT22;5265;50.006;9.202;2023-05-10T18:02:22;16.70;99.90
10437;DHT22;5265;50.006;9.202;2023-05-10T18:04:50;16.60;99.90
10437;DHT22;5265;50.006;9.202;2023-05-10T18:07:17;16.60;99.90
10437;DHT22;5265;50.006;9.202;2023-05-10T18:09:46;16.60;99.90
10437;DHT22;5265;50.006;9.202;2023-05-10T18:12:13;16.70;99.90
10437;DHT22;5265;50.006;9.202;2023-05-10T18:14:41;16.70;99.90
10437;DHT22;5265;50.006;9.202;2023-05-10T18:17:08;16.70;99.90
10437;DHT22;5265;50.006;9.202;2023-05-10T18:19:37;16.80;99.90
10437;DHT22;5265;50.006;9.202;2023-05-10T18:22:04;16.70;99.90
10437;DHT22;5265;50.006;9.202;2023-05-10T18:24:31;16.80;99.90
10437;DHT22;5265;50.006;9.202;2023-05-10T18:26:58;16.80;99.90
10437;DHT22;5265;50.006;9.202;2023-05-10T18:29:26;16.60;99.90
10437;DHT22;5265;50.006;9.202;2023-05-10T18:31:53;16.70;99.90
10437;DHT22;5265;50.006;9.202;2023-05-10T18:34:20;16.60;99.90
10437;DHT22;5265;50.006;9.202;2023-05-10T18:36:48;16.50;99.90
10437;DHT22;5265;50.006;9.202;2023-05-10T18:39:16;16.50;99.90
10437;DHT22;5265;50.006;9.202;2023-05-10T18:41:43;16.40;99.90
10437;DHT22;5265;50.006;9.202;2023-05-10T18:44:11;16.30;99.90
10437;DHT22;5265;50.006;9.202;2023-05-10T18:46:39;16.30;99.90
10437;DHT22;5265;50.006;9.202;2023-05-10T18:49:07;16.20;99.90
10437;DHT22;5265;50.006;9.202;2023-05-10T18:51:34;16.20;99.90
10437;DHT22;5265;50.006;9.202;2023-05-10T18:54:02;16.00;99.90
10437;DHT22;5265;50.006;9.202;2023-05-10T18:56:29;15.90;99.90
10437;DHT22;5265;50.006;9.202;2023-05-10T18:58:57;15.90;99.90
10437;DHT22;5265;50.006;9.202;2023-05-10T19:01:24;15.80;99.90
10437;DHT22;5265;50.006;9.202;2023-05-10T19:03:51;15.60;99.90
10437;DHT22;5265;50.006;9.202;2023-05-10T19:06:18;15.50;99.90
10437;DHT22;5265;50.006;9.202;2023-05-10T19:08:45;15.50;99.90
10437;DHT22;5265;50.006;9.202;2023-05-10T19:11:13;15.40;99.90
10437;DHT22;5265;50.006;9.202;2023-05-10T19:13:41;15.40;99.90
10437;DHT22;5265;50.006;9.202;2023-05-10T19:16:10;15.30;99.90
10437;DHT22;5265;50.006;9.202;2023-05-10T19:18:37;15.20;99.90
10437;DHT22;5265;50.006;9.202;2023-05-10T19:21:05;15.00;99.90
10437;DHT22;5265;50.006;9.202;2023-05-10T19:23:33;14.90;99.90
10437;DHT22;5265;50.006;9.202;2023-05-10T19:26:01;14.80;99.90
10437;DHT22;5265;50.006;9.202;2023-05-10T19:28:29;14.60;99.90
10437;DHT22;5265;50.006;9.202;2023-05-10T19:30:56;14.60;99.90
10437;DHT22;5265;50.006;9.202;2023-05-10T19:33:24;14.50;99.90
10437;DHT22;5265;50.006;9.202;2023-05-10T19:35:51;14.30;99.90
10437;DHT22;5265;50.006;9.202;2023-05-10T19:38:19;14.20;99.90
10437;DHT22;5265;50.006;9.202;2023-05-10T19:40:46;14.10;99.90